Orbital elements of RADIO 1
| Launched | 25 October 1978 |
| Flight ended | – |
| Launch site | Plesetsk Missile and Space Complex, Russia |
| Owner | Commonwealth of Independent States (former USSR) |
| NORAD ID | 11085 |
| Alternative names |
RS1 |
| Date fetched |
Epoch osculation |
Inc. [°] |
Ecc. | RA asc node [hr] |
Arg Peri. [°] |
Mean anom [°] |
Mean motion [rev/day] |
Abs. mag |
| Date fetched |
Epoch osculation |
Inc. [°] |
Ecc. | RA asc node [hr] |
Arg Peri. [°] |
Mean anom [°] |
Mean motion [rev/day] |
Abs. mag |
| 2026 May 09 17:57 | 2026 May 05 06:17:50 | 82.5478 | 0.00142 | 4.7141 | 64.6347 | 91.4308 | 11.96569 | – |
| 2026 May 08 17:57 | 2026 May 05 06:17:50 | 82.5478 | 0.00142 | 4.7141 | 64.6347 | 91.4308 | 11.96569 | – |
| 2026 May 07 17:58 | 2026 May 05 06:17:50 | 82.5478 | 0.00142 | 4.7141 | 64.6347 | 91.4308 | 11.96569 | – |
| 2026 May 06 17:57 | 2026 May 05 06:17:50 | 82.5478 | 0.00142 | 4.7141 | 64.6347 | 91.4308 | 11.96569 | – |
| 2026 May 05 17:57 | 2026 May 05 06:17:50 | 82.5478 | 0.00142 | 4.7141 | 64.6347 | 91.4308 | 11.96569 | – |
| 2026 May 04 17:57 | 2026 Apr 30 09:44:50 | 82.5469 | 0.00143 | 4.8972 | 73.6793 | 91.4308 | 11.96569 | – |
| 2026 May 03 17:57 | 2026 Apr 30 09:44:50 | 82.5469 | 0.00143 | 4.8972 | 73.6793 | 91.4308 | 11.96569 | – |
| 2026 May 02 17:57 | 2026 Apr 30 09:44:50 | 82.5469 | 0.00143 | 4.8972 | 73.6793 | 91.4308 | 11.96569 | – |
| 2026 May 01 17:56 | 2026 Apr 30 09:44:50 | 82.5469 | 0.00143 | 4.8972 | 73.6793 | 91.4308 | 11.96569 | – |
| 2026 Apr 30 17:56 | 2026 Apr 30 09:44:50 | 82.5469 | 0.00143 | 4.8972 | 73.6793 | 91.4308 | 11.96569 | – |
| 2026 Apr 29 17:57 | 2026 Apr 24 07:25:29 | 82.5457 | 0.00143 | 5.1271 | 85.0325 | 91.4308 | 11.96569 | – |
| 2026 Apr 28 17:56 | 2026 Apr 24 07:25:29 | 82.5457 | 0.00143 | 5.1271 | 85.0325 | 91.4308 | 11.96569 | – |
| 2026 Apr 27 17:58 | 2026 Apr 24 07:25:29 | 82.5457 | 0.00143 | 5.1271 | 85.0325 | 91.4308 | 11.96569 | – |
| 2026 Apr 26 17:58 | 2026 Apr 24 07:25:29 | 82.5457 | 0.00143 | 5.1271 | 85.0325 | 91.4308 | 11.96569 | – |
| 2026 Apr 25 17:58 | 2026 Apr 24 07:25:29 | 82.5457 | 0.00143 | 5.1271 | 85.0325 | 91.4308 | 11.96569 | – |
| 2026 Apr 24 17:59 | 2026 Apr 24 07:25:29 | 82.5457 | 0.00143 | 5.1271 | 85.0325 | 91.4308 | 11.96569 | – |
| 2026 Apr 23 17:57 | 2026 Apr 19 04:12:44 | 82.5448 | 0.00142 | 5.3208 | 94.5864 | 91.4308 | 11.96569 | – |
| 2026 Apr 22 17:57 | 2026 Apr 19 04:12:44 | 82.5448 | 0.00142 | 5.3208 | 94.5864 | 91.4308 | 11.96569 | – |
| 2026 Apr 21 17:57 | 2026 Apr 19 04:12:44 | 82.5448 | 0.00142 | 5.3208 | 94.5864 | 91.4308 | 11.96569 | – |
| 2026 Apr 20 17:57 | 2026 Apr 19 04:12:44 | 82.5448 | 0.00142 | 5.3208 | 94.5864 | 91.4308 | 11.96569 | – |
| 2026 Apr 19 17:58 | 2026 Apr 19 04:12:44 | 82.5448 | 0.00142 | 5.3208 | 94.5864 | 91.4308 | 11.96569 | – |
| 2026 Apr 18 17:56 | 2026 Apr 13 05:44:25 | 82.5436 | 0.00142 | 5.5447 | 105.6843 | 91.4308 | 11.96569 | – |
| 2026 Apr 16 17:57 | 2026 Apr 13 05:44:25 | 82.5436 | 0.00142 | 5.5447 | 105.6843 | 91.4308 | 11.96569 | – |
| 2026 Apr 14 17:57 | 2026 Apr 13 05:44:25 | 82.5436 | 0.00142 | 5.5447 | 105.6843 | 91.4308 | 11.96569 | – |
| 2026 Apr 13 17:57 | 2026 Apr 13 05:44:25 | 82.5436 | 0.00142 | 5.5447 | 105.6843 | 91.4308 | 11.96569 | – |
| 2026 Apr 12 17:57 | 2026 Apr 08 10:09:30 | 82.5430 | 0.00141 | 5.7264 | 114.7695 | 91.4308 | 11.96569 | – |